Quezon City, Philippines
Current Conditions -  °F | °C
As of 4:00 AM on Tuesday 25 Nov 2014 (Local Time) from RPLL Reporting Station
Few Clouds Few Clouds  
Wind Chill: 79°   Ceiling: Unl
Heat Index: 83°   Visibility: 6mi
Dew Point: 77°   Wind: 2mph
Humidity: 94%   Direction: 90°E
Pressure: 29.8"   Gusts: NA
Location:  14.66°N, 121.07°E
Report Text: RPLL 242000Z 09002KT 9999 FEW030 26/25 Q1009 NOSIG RMK A2980
Loading
Personal Weather Stations






























Interactive Weather Map New forecast layout! Learn more

10-Day Weather Forecast

Advertisements
Track Severe Weather on mobile